Share

Duenweg, MO

Mohaska (KMOJOPLI11) Elev 1010 ft | 37.06 °N, 94.52 °W | Change Station

Current weather conditions updated 1 minute ago

Clear
Clear
55.6 °F
Feels Like 55.6 °F
N
2.0
Wind Variable Wind from SE
Gusts 5.0 mph
Sunrise 6:37 AM
Sunset 7:56 PM
Moon Waning Gibbous

Today is forecast to be Warmer than yesterday.

Pressure 30.16 in
Visibility 10.0 miles
Clouds Clear
Dew Point 43 °F
Humidity 64%
Rainfall 0.00 in
Snow Depth Not available.
UV 0 out of 16
Pollen 10.00 out of 12
Air Quality Not available.
Flu Activity Sporadic
METAR KJLN 190953Z AUTO 15007KT 10SM CLR 12/05 A3017 RMK AO2 SLP212 T01170050

More Conditions Fewer Conditions

Pressure 30.16 in
Visibility 10.0 miles
Clouds Clear
Dew Point 43 °F
Humidity 64%
Rainfall 0.00 in
Snow Depth Not available.
UV 0 out of 16
Pollen 10.00 out of 12
Air Quality Not available.
Flu Activity Sporadic
METAR KJLN 190953Z AUTO 15007KT 10SM CLR 12/05 A3017 RMK AO2 SLP212 T01170050

More Conditions Fewer Conditions

10-Day Weather Forecast

Almanac

Astronomy

Apr. 19, 2014 Rise Set
Actual Time 6:37 AM CDT 7:56 PM CDT
Civil Twilight 6:10 AM CDT 8:23 PM CDT
Nautical Twilight 5:38 AM CDT 8:55 PM CDT
Astronomical Twilight 5:04 AM CDT 9:29 PM CDT
Moon No Moon Rise 10:00 AM CDT
Length of Visible Light 14h 12m
Length of Day
13h 18m
Tomorrow will be 2m 13s longer.
Waning Gibbous, 81% of the Moon is Illuminated
Today
Waning Gibbous
Apr 22
Last Quarter
Apr 29
New
May 6
First Quarter
May 14
Full

Today's Extremes

State Highs State Lows

Community

  • Bleeding Hearts
    Bleeding Hearts
  • Sunset Silhouettes
    Sunset Silhouettes
  • FL sunset Perico Isle
    FL sunset Perico Isle
  • Cloudy spring view
    Cloudy spring view
  • Old barn
    Old barn

WunderPhotos

Upload Photos

1,702,676 photos uploaded!

WunderBlogs® & News

Nearby

Snow Depth

Station Depth Elevation
No new snow has been reported.

Coastal Water Temperatures

Place Temperature
No Stations Reporting

Earthquake Activity

City Distance Mag. Time & Date
No recent earthquake activity has been reported nearby.
Minimum magnitude displayed is 2.5.

Nearby Weather Stations

Station Location Temp. Dew Point Humidity Wind Precip. Elev Updated Type
Mohaska, Joplin, MO 55.6 °F 43 °F 64% SE  at  2.0 mph 0.00 in / hr 1010 ft 5:13 AM CDT Normal
the Wood, Reeds, MO 52.8 °F 43 °F 70% SE  at  2.0 mph 0.00 in / hr 1086 ft 5:10 AM CDT Normal
ESE Cherokee Co Kansas, Columbus, KS 55.3 °F 44 °F 66% SE  at  3.0 mph 0.00 in / hr 951 ft 5:06 AM CDT Normal
NonFedAWOS NEOSHO AIRPORT , Neosho, MO 55 °F 45 °F 67% SE  at  5 mph 0.00 in / hr 1254 ft 2:35 AM CDT MADIS

Show More Stations Show Fewer Stations

What do you think?

We're not finished. Please let us know what you like, what you don't like, and what you are still missing.